• Join FlightAware (Why Join?)
  • Login
  • US Flag 
04:32AM EDT


 

Airport Tracker/Info


-or-


 

Live Flight TrackerFlight Track Log ✈ N222GL ✈ 26-Apr-2013 ✈ KAPA - 1F5

Flight Track Log - Related Links

Times and Time Zones

All times are in EDT time to prevent confusion due to time zone crossing. See the N222GL flight status page for this flight to view local times or setup timezone preferences in your user account.

Time Position Orientation Groundspeed Altitude Reporting Facility
EDT Latitude Longitude Course Direction KTS MPH feet Rate Location/Type
06:07PM 39.5833 -104.8167 92° East 119 137 6,500  Level Denver TRACON
06:08PM 39.5500 -104.8000 159° South 121 139 7,000 480 Climbing Denver TRACON
06:09PM 39.5333 -104.7667 123° Southeast 125 144 7,500 360 Climbing Denver TRACON
06:10PM 39.5167 -104.7167 113° Southeast 127 146 7,800 180 Climbing Denver TRACON
06:11PM 39.5086 -104.6725 103° East 135 155 7,900 60 Climbing Denver Center
06:12PM 39.5588 -104.5031 92° East  Level Estimated
06:12PM 39.5075 -104.6167 91° East 156 180 8,000  Level Denver Center
06:13PM 39.5056 -104.5550 92° East 159 183 8,000 -60 Level Denver Center
06:14PM 39.5050 -104.4986 91° East 158 182 7,900  Descending Denver Center
06:15PM 39.5156 -104.4425 76° East 153 176 8,000 240 Climbing Denver Center
06:16PM 39.5308 -104.3947 67° East 145 167 8,400 360 Climbing Denver Center
06:17PM 39.5472 -104.3489 65° Northeast 133 153 8,800 240 Climbing Denver Center
06:18PM 39.5617 -104.3042 67° East 134 154 9,000 300 Climbing Denver Center
06:19PM 39.5764 -104.2600 67° East 125 144 9,500 420 Climbing Denver Center
06:20PM 39.5906 -104.2186 66° East 126 145 9,900 360 Climbing Denver Center
06:21PM 39.6044 -104.1756 67° East 120 138 10,300 360 Climbing Denver Center
06:22PM 39.6172 -104.1378 66° East 117 135 10,700 300 Climbing Denver Center
06:23PM 39.6317 -104.0936 67° East 122 140 11,000 120 Climbing Denver Center
06:24PM 39.6483 -104.0436 67° East 149 171 11,000  Level Denver Center
06:25PM 39.6644 -103.9936 67° East 151 174 11,000  Level Denver Center
06:26PM 39.6678 -103.9383 86° East 145 167 11,000  Level Denver Center
06:27PM 39.6636 -103.8900 96° East 136 157 11,000  Level Denver Center
06:28PM 39.6614 -103.8378 93° East 135 155 11,000  Level Denver Center
06:29PM 39.6583 -103.7839 94° East 150 173 11,000  Level Denver Center
06:30PM 39.6567 -103.7311 92° East 143 165 11,000  Level Denver Center
06:31PM 39.6544 -103.6739 93° East 148 170 11,000  Level Denver Center
06:32PM 39.6514 -103.6169 94° East 155 178 11,000  Level Denver Center
06:33PM 39.6481 -103.5625 95° East 153 176 11,000  Level Denver Center
06:34PM 39.6453 -103.5083 94° East 151 174 11,000  Level Denver Center
06:35PM 39.6428 -103.4489 93° East 145 167 11,000  Level Denver Center
06:37PM 39.6400 -103.3947 94° East 145 167 11,000 -60 Level Denver Center
06:38PM 39.6356 -103.3378 96° East 153 176 10,900  Descending Denver Center
06:39PM 39.6322 -103.2831 95° East 152 175 11,000  Climbing Denver Center
06:40PM 39.6286 -103.2239 95° East 157 181 11,000 -60 Level Denver Center
06:41PM 39.6256 -103.1672 94° East 159 183 10,900 -60 Descending Denver Center
06:42PM 39.6222 -103.1139 95° East 152 175 10,900  Level Denver Center
06:43PM 39.6192 -103.0506 94° East 149 171 10,900  Level Denver Center
06:44PM 39.6161 -102.9967 94° East 149 171 10,900  Level Denver Center
06:45PM 39.6128 -102.9383 94° East 155 178 10,900  Level Denver Center
06:46PM 39.6086 -102.8783 95° East 163 188 10,900  Level Denver Center
06:47PM 39.6058 -102.8253 94° East 154 177 10,900  Level Denver Center
06:48PM 39.6014 -102.7717 96° East 150 173 10,900  Level Denver Center
06:49PM 39.5986 -102.7183 94° East 148 170 10,900 -60 Level Denver Center
06:50PM 39.5950 -102.6569 94° East 146 168 10,800  Descending Denver Center
06:51PM 39.5925 -102.6025 93° East 149 171 10,900 60 Climbing Denver Center
06:52PM 39.5872 -102.5508 98° East 146 168 11,000  Climbing Denver Center
06:53PM 39.5814 -102.4978 98° East 146 168 11,000  Level Denver Center
06:54PM 39.5789 -102.4461 94° East 148 170 11,000  Level Denver Center
06:55PM 39.5750 -102.3825 95° East 154 177 11,000  Level Denver Center
06:56PM 39.5708 -102.3311 96° East 153 176 11,000  Level Denver Center
06:57PM 39.5669 -102.2703 95° East 152 175 11,000  Level Denver Center
06:58PM 39.5628 -102.2203 96° East 150 173 11,000  Level Denver Center
06:59PM 39.5597 -102.1572 94° East 152 175 11,000  Level Denver Center
07:00PM 39.5550 -102.1025 96° East 156 180 11,000  Level Denver Center
07:01PM 39.5500 -102.0406 96° East 156 180 11,000  Level Denver Center
07:02PM 39.5472 -101.9883 94° East 155 178 11,000  Level Denver Center
07:03PM 39.5417 -101.9297 97° East 152 175 11,000  Level Denver Center
07:04PM 39.5392 -101.8789 94° East 150 173 11,000  Level Denver Center
07:05PM 39.5364 -101.8219 94° East 147 169 11,000  Level Denver Center
07:06PM 39.5314 -101.7694 97° East 147 169 11,000  Level Denver Center
07:08PM 39.5278 -101.7158 95° East 151 174 11,000  Level Denver Center
07:09PM 39.5236 -101.6558 95° East 152 175 11,000  Level Denver Center
07:10PM 39.5211 -101.6053 94° East 150 173 11,000  Level Denver Center
07:11PM 39.5156 -101.5467 97° East 149 171 11,000  Level Denver Center
07:12PM 39.5122 -101.4975 95° East 145 167 11,000  Level Denver Center
07:13PM 39.5086 -101.4372 94° East 150 173 11,000  Level Denver Center
07:14PM 39.5044 -101.3894 96° East 159 183 11,000  Level Denver Center
07:15PM 39.5003 -101.3364 96° East 158 182 11,000  Level Denver Center
07:16PM 39.4958 -101.2722 95° East 145 167 11,000  Level Denver Center
07:17PM 39.4906 -101.2075 96° East 156 180 11,000  Level Denver Center
07:18PM 39.4864 -101.1531 96° East 159 183 11,000  Level Denver Center
07:19PM 39.4822 -101.0931 95° East 153 176 11,000  Level Denver Center
07:20PM 39.4781 -101.0389 96° East 156 180 11,000  Level Denver Center
07:21PM 39.4739 -100.9858 96° East 156 180 11,000  Level Denver Center
07:22PM 39.4681 -100.9261 97° East 152 175 11,000  Level Denver Center
07:23PM 39.4647 -100.8728 95° East 154 177 11,000  Level Denver Center
07:24PM 39.4600 -100.8136 96° East 151 174 11,000  Level Denver Center
07:25PM 39.4558 -100.7578 96° East 157 181 11,000 -60 Level Denver Center
07:26PM 39.4503 -100.6972 97° East 156 180 10,900 -540 Descending Denver Center
07:27PM 39.4342 -100.6633 122° Southeast 130 150 9,900 -1,080 Descending Denver Center
07:28PM 39.4181 -100.6319 124° Southeast 103 119 8,700 -1,200 Descending Denver Center
07:29PM 39.4094 -100.6031 111° Southeast 93 107 7,500 -1,140 Descending Denver Center
07:30PM 39.3964 -100.5669 115° Southeast 98 113 6,400 -960 Descending Denver Center
07:31PM 39.3908 -100.5392 105° East 92 106 5,600 -480 Descending Denver Center
07:32PM 39.3839 -100.5122 108° East 91 105 5,500 -120 Descending Denver Center
07:34PM 39.3577 -100.4511 119° Southeast  Level FlightAware Approximate